createdAt,value
2023-03-16T00:00:18.980Z,3.57
2023-03-16T00:02:46.111Z,3.53
2023-03-16T00:05:14.467Z,3.54
2023-03-16T00:07:44.626Z,3.57
2023-03-16T00:10:13.502Z,3.59
2023-03-16T00:12:43.469Z,3.57
2023-03-16T00:15:14.133Z,3.62
2023-03-16T00:17:41.339Z,3.65
2023-03-16T00:20:09.388Z,3.71
2023-03-16T00:22:36.353Z,3.74
2023-03-16T00:25:04.548Z,3.80
2023-03-16T00:27:31.494Z,3.77
2023-03-16T00:29:58.733Z,3.81
2023-03-16T00:32:35.455Z,3.80
2023-03-16T00:35:05.088Z,3.80
2023-03-16T00:37:36.901Z,3.79
2023-03-16T00:40:04.503Z,3.78
2023-03-16T00:42:34.143Z,3.75
2023-03-16T00:45:01.629Z,3.68
2023-03-16T00:47:31.656Z,3.63
2023-03-16T00:50:00.041Z,3.62
2023-03-16T00:52:29.015Z,3.62
2023-03-16T00:54:58.806Z,3.67
2023-03-16T00:57:28.633Z,3.64
2023-03-16T00:59:56.220Z,3.56
2023-03-16T01:02:24.553Z,3.55
2023-03-16T01:04:54.376Z,3.51
2023-03-16T01:07:21.930Z,3.51
2023-03-16T01:09:48.944Z,3.52
2023-03-16T01:12:19.216Z,3.52
2023-03-16T01:14:47.057Z,3.52
2023-03-16T01:17:17.340Z,3.50
2023-03-16T01:19:45.556Z,3.46
2023-03-16T01:22:12.836Z,3.40
2023-03-16T01:24:41.672Z,3.38
2023-03-16T01:27:09.385Z,3.33
2023-03-16T01:29:38.301Z,3.34
2023-03-16T01:32:06.964Z,3.34
2023-03-16T01:34:35.114Z,3.28
2023-03-16T01:37:03.157Z,3.26
2023-03-16T01:39:44.738Z,3.18
2023-03-16T01:42:13.776Z,3.13
2023-03-16T01:45:02.326Z,3.07
2023-03-16T01:47:39.124Z,3.01
2023-03-16T01:50:11.998Z,2.97
2023-03-16T01:52:42.233Z,2.89
2023-03-16T01:55:14.012Z,2.80
2023-03-16T01:57:45.988Z,2.72
2023-03-16T02:00:23.645Z,2.66
2023-03-16T02:03:16.998Z,2.61
2023-03-16T02:06:06.722Z,2.53
2023-03-16T02:08:37.989Z,2.48
2023-03-16T02:11:07.527Z,2.41
2023-03-16T02:13:46.629Z,2.33
2023-03-16T02:16:19.657Z,2.25
2023-03-16T02:18:50.870Z,2.21
2023-03-16T02:21:29.636Z,2.15
2023-03-16T02:23:57.094Z,2.07
2023-03-16T02:26:29.871Z,2.03
2023-03-16T02:29:48.510Z,1.95
2023-03-16T02:32:17.592Z,1.83
2023-03-16T02:34:44.901Z,1.82
2023-03-16T02:37:13.428Z,1.75
2023-03-16T02:39:44.020Z,1.74
2023-03-16T02:42:18.902Z,1.67
2023-03-16T02:44:53.412Z,1.64
2023-03-16T02:47:38.296Z,1.57
2023-03-16T02:50:07.073Z,1.53
2023-03-16T02:52:37.530Z,1.50
2023-03-16T02:55:08.088Z,1.46
2023-03-16T02:57:35.268Z,1.41
2023-03-16T03:00:13.192Z,1.43
2023-03-16T03:02:41.090Z,1.38
2023-03-16T03:05:08.606Z,1.40
2023-03-16T03:07:37.281Z,1.37
2023-03-16T03:10:07.637Z,1.33
2023-03-16T03:12:35.320Z,1.31
2023-03-16T03:15:07.041Z,1.26
2023-03-16T03:17:43.003Z,1.24
2023-03-16T03:20:16.592Z,1.19
2023-03-16T03:22:46.429Z,1.17
2023-03-16T03:25:16.716Z,1.16
2023-03-16T03:27:44.199Z,1.16
2023-03-16T03:30:21.084Z,1.13
2023-03-16T03:32:49.126Z,1.15
2023-03-16T03:35:19.485Z,1.17
2023-03-16T03:37:46.740Z,1.20
2023-03-16T03:40:17.415Z,1.27
2023-03-16T03:42:47.929Z,1.28
2023-03-16T03:45:15.889Z,1.32
2023-03-16T03:47:44.383Z,1.36
2023-03-16T03:50:16.232Z,1.35
2023-03-16T03:52:56.743Z,1.35
2023-03-16T03:55:23.810Z,1.37
2023-03-16T03:57:50.998Z,1.36
2023-03-16T04:00:20.901Z,1.39
2023-03-16T04:02:49.600Z,1.39
2023-03-16T04:05:28.681Z,1.39
2023-03-16T04:07:57.701Z,1.42
2023-03-16T04:10:27.645Z,1.39
2023-03-16T04:12:56.688Z,1.44
2023-03-16T04:15:24.437Z,1.45
2023-03-16T04:18:03.790Z,1.41
2023-03-16T04:20:30.895Z,1.38
2023-03-16T04:23:00.934Z,1.36
2023-03-16T04:25:30.603Z,1.32
2023-03-16T04:27:58.779Z,1.28
2023-03-16T04:30:30.966Z,1.28
2023-03-16T04:33:08.304Z,1.22
2023-03-16T04:35:35.469Z,1.17
2023-03-16T04:38:02.556Z,1.15
2023-03-16T04:40:38.958Z,1.03
2023-03-16T04:43:13.552Z,0.97
2023-03-16T04:45:42.095Z,0.93
2023-03-16T04:48:10.360Z,0.85
2023-03-16T04:50:38.614Z,0.85
2023-03-16T04:53:05.794Z,0.82
2023-03-16T04:55:33.507Z,0.78
2023-03-16T04:58:01.538Z,0.74
2023-03-16T05:00:33.502Z,0.74
2023-03-16T05:03:06.528Z,0.71
2023-03-16T05:05:34.938Z,0.70
2023-03-16T05:08:02.145Z,0.67
2023-03-16T05:10:32.286Z,0.65
2023-03-16T05:13:00.518Z,0.64
2023-03-16T05:15:28.582Z,0.64
2023-03-16T05:18:12.213Z,0.60
2023-03-16T05:20:39.655Z,0.58
2023-03-16T05:23:08.294Z,0.59
2023-03-16T05:25:42.544Z,0.63
2023-03-16T05:28:11.168Z,0.60
2023-03-16T05:30:45.404Z,0.64
2023-03-16T05:33:17.054Z,0.66
2023-03-16T05:35:48.763Z,0.64
2023-03-16T05:38:15.971Z,0.67
2023-03-16T05:40:44.357Z,0.72
2023-03-16T05:43:20.963Z,0.82
2023-03-16T05:45:50.847Z,0.84
2023-03-16T05:48:21.220Z,0.90
2023-03-16T05:50:53.828Z,0.94
2023-03-16T05:53:28.795Z,0.98
2023-03-16T05:56:01.191Z,1.04
2023-03-16T05:58:28.813Z,1.09
2023-03-16T06:01:01.178Z,1.11
2023-03-16T06:03:31.386Z,1.19
2023-03-16T06:05:59.673Z,1.23
2023-03-16T06:08:31.376Z,1.27
2023-03-16T06:11:07.803Z,1.33
2023-03-16T06:13:35.264Z,1.36
2023-03-16T06:16:02.855Z,1.45
2023-03-16T06:18:30.060Z,1.53
2023-03-16T06:20:57.082Z,1.57
2023-03-16T06:23:25.080Z,1.62
2023-03-16T06:25:55.204Z,1.68
2023-03-16T06:28:25.574Z,1.72
2023-03-16T06:30:57.863Z,1.81
2023-03-16T06:33:29.535Z,1.87
2023-03-16T06:35:56.993Z,1.93
2023-03-16T06:38:33.540Z,1.97
2023-03-16T06:41:07.768Z,2.01
2023-03-16T06:43:36.096Z,2.07
2023-03-16T06:46:03.993Z,2.10
2023-03-16T06:48:31.253Z,2.19
2023-03-16T06:50:58.652Z,2.28
2023-03-16T06:53:28.084Z,2.32
2023-03-16T06:55:56.528Z,2.42
2023-03-16T06:58:24.624Z,2.43
2023-03-16T07:00:53.845Z,2.50
2023-03-16T07:03:21.538Z,2.53
2023-03-16T07:05:54.231Z,2.53
2023-03-16T07:08:21.741Z,2.58
2023-03-16T07:10:50.588Z,2.67
2023-03-16T07:13:18.453Z,2.77
2023-03-16T07:15:45.408Z,2.82
2023-03-16T07:18:12.610Z,2.93
2023-03-16T07:20:39.823Z,3.04
2023-03-16T07:23:07.185Z,3.15
2023-03-16T07:25:35.754Z,3.21
2023-03-16T07:28:05.483Z,3.31
2023-03-16T07:30:39.038Z,3.39
2023-03-16T07:33:08.221Z,3.46
2023-03-16T07:35:36.096Z,3.49
2023-03-16T07:38:03.974Z,3.57
2023-03-16T07:40:31.479Z,3.58
2023-03-16T07:43:06.662Z,3.63
2023-03-16T07:45:36.146Z,3.64
2023-03-16T07:48:04.516Z,3.73
2023-03-16T07:50:39.418Z,3.76
2023-03-16T07:53:06.461Z,3.84
2023-03-16T07:55:38.855Z,3.92
2023-03-16T07:58:07.342Z,4.01
2023-03-16T08:00:38.039Z,4.06
2023-03-16T08:03:05.659Z,4.15
2023-03-16T08:05:33.152Z,4.23
2023-03-16T08:08:02.931Z,4.31
2023-03-16T08:10:33.685Z,4.45
2023-03-16T08:13:07.529Z,4.58
2023-03-16T08:15:36.112Z,4.72
2023-03-16T08:18:12.510Z,4.85
2023-03-16T08:20:39.728Z,4.99
2023-03-16T08:23:08.459Z,5.15
2023-03-16T08:25:39.064Z,5.27
2023-03-16T08:28:13.121Z,5.37
2023-03-16T08:30:52.182Z,5.49
2023-03-16T08:33:38.648Z,5.54
2023-03-16T08:36:08.826Z,5.59
2023-03-16T08:38:36.182Z,5.64
2023-03-16T08:41:08.042Z,5.66
2023-03-16T08:43:37.424Z,5.72
2023-03-16T08:46:05.492Z,5.83
2023-03-16T08:48:43.437Z,5.93
2023-03-16T08:51:11.607Z,6.02
2023-03-16T08:53:39.127Z,6.17
2023-03-16T08:56:09.152Z,6.25
2023-03-16T08:58:36.782Z,6.29
2023-03-16T09:01:05.760Z,6.39
2023-03-16T09:03:34.807Z,6.47
2023-03-16T09:06:09.874Z,6.56
2023-03-16T09:08:39.142Z,6.63
2023-03-16T09:11:10.452Z,6.76
2023-03-16T09:13:39.286Z,6.88
2023-03-16T09:16:08.026Z,7.01
2023-03-16T09:18:36.261Z,7.18
2023-03-16T09:21:07.012Z,7.30
2023-03-16T09:23:37.508Z,7.49
2023-03-16T09:26:07.483Z,7.67
2023-03-16T09:28:38.623Z,7.85
2023-03-16T09:31:07.176Z,8.01
2023-03-16T09:33:35.351Z,8.25
2023-03-16T09:36:03.881Z,8.50
2023-03-16T09:38:32.105Z,8.76
2023-03-16T09:41:10.646Z,9.02
2023-03-16T09:43:51.532Z,9.26
2023-03-16T09:46:27.261Z,9.49
2023-03-16T09:48:56.810Z,9.68
2023-03-16T09:51:37.519Z,9.87
2023-03-16T09:54:17.366Z,10.07
2023-03-16T09:56:46.781Z,10.27
2023-03-16T09:59:17.416Z,10.47
2023-03-16T10:02:25.439Z,10.64
2023-03-16T10:05:06.317Z,10.83
2023-03-16T10:07:45.394Z,10.95
2023-03-16T10:10:15.349Z,11.03
2023-03-16T10:12:51.459Z,11.12
2023-03-16T10:15:27.058Z,11.24
2023-03-16T10:18:18.418Z,11.27
2023-03-16T10:20:47.889Z,11.30
2023-03-16T10:23:24.286Z,11.35
2023-03-16T10:25:56.443Z,11.35
2023-03-16T10:28:28.805Z,11.34
2023-03-16T10:31:00.372Z,11.27
2023-03-16T10:33:34.296Z,11.16
2023-03-16T10:36:30.266Z,11.01
2023-03-16T10:39:04.013Z,10.92
2023-03-16T10:41:40.575Z,10.83
2023-03-16T10:44:13.565Z,10.78
2023-03-16T10:47:03.380Z,10.71
2023-03-16T10:49:49.024Z,10.72
2023-03-16T10:52:45.445Z,10.72
2023-03-16T10:55:21.541Z,10.78
2023-03-16T10:57:53.690Z,10.83
2023-03-16T11:00:26.574Z,10.90
2023-03-16T11:02:55.799Z,10.92
2023-03-16T11:05:32.578Z,10.94
2023-03-16T11:08:02.264Z,10.98
2023-03-16T11:10:46.062Z,11.00
2023-03-16T11:13:21.333Z,10.98
2023-03-16T11:15:53.941Z,11.02
2023-03-16T11:19:18.881Z,10.97
2023-03-16T11:21:59.797Z,10.91
2023-03-16T11:24:43.265Z,10.87
2023-03-16T11:28:12.969Z,10.87
2023-03-16T11:31:08.955Z,10.85
2023-03-16T11:33:35.981Z,10.87
2023-03-16T11:36:16.094Z,10.89
2023-03-16T11:39:14.947Z,10.91
2023-03-16T11:42:04.133Z,10.90
2023-03-16T11:44:57.395Z,10.82
2023-03-16T11:48:13.750Z,10.72
2023-03-16T11:51:07.657Z,10.67
2023-03-16T11:53:55.365Z,10.61
2023-03-16T11:56:43.026Z,10.52
2023-03-16T11:59:28.378Z,10.47
2023-03-16T12:02:36.195Z,10.44
2023-03-16T12:05:55.708Z,10.41
2023-03-16T12:08:36.016Z,10.44
2023-03-16T12:11:13.041Z,10.47
2023-03-16T12:14:03.870Z,10.62
2023-03-16T12:16:49.515Z,11.02
2023-03-16T12:19:45.463Z,11.81
2023-03-16T12:22:21.491Z,12.75
2023-03-16T12:24:49.195Z,13.81
2023-03-16T12:27:29.303Z,14.82
2023-03-16T12:30:27.584Z,15.96
2023-03-16T12:33:13.706Z,17.05
2023-03-16T12:35:57.138Z,18.14
2023-03-16T12:38:45.633Z,19.27
2023-03-16T12:41:59.174Z,20.83
2023-03-16T12:45:04.854Z,22.47
2023-03-16T12:48:17.913Z,23.73
2023-03-16T12:51:05.031Z,24.94
2023-03-16T12:53:51.815Z,25.93
2023-03-16T12:56:30.077Z,26.80
2023-03-16T12:59:00.898Z,27.44
2023-03-16T13:01:44.836Z,27.83
2023-03-16T13:04:17.011Z,27.77
2023-03-16T13:06:51.533Z,27.76
2023-03-16T13:09:27.371Z,27.91
2023-03-16T13:11:55.481Z,28.23
2023-03-16T13:14:44.094Z,28.63
2023-03-16T13:17:17.315Z,29.10
2023-03-16T13:20:30.809Z,29.29
2023-03-16T13:23:18.041Z,29.31
2023-03-16T13:26:01.882Z,29.46
2023-03-16T13:28:36.712Z,29.62
2023-03-16T13:31:06.162Z,29.84
2023-03-16T13:33:38.529Z,30.14
2023-03-16T13:36:06.497Z,30.41
2023-03-16T13:38:33.576Z,30.41
2023-03-16T13:41:11.873Z,30.25
2023-03-16T13:43:43.821Z,30.21
2023-03-16T13:46:20.201Z,30.32
2023-03-16T13:48:51.292Z,30.33
2023-03-16T13:51:22.602Z,30.26
2023-03-16T13:53:50.898Z,30.29
2023-03-16T13:56:26.791Z,30.30
2023-03-16T13:58:54.213Z,30.23
2023-03-16T14:01:31.288Z,30.17
2023-03-16T14:04:13.332Z,30.25
2023-03-16T14:06:43.441Z,30.41
2023-03-16T14:09:20.339Z,30.45
2023-03-16T14:11:48.687Z,30.55
2023-03-16T14:14:24.505Z,30.63
2023-03-16T14:16:53.464Z,30.57
2023-03-16T14:19:34.523Z,30.44
2023-03-16T14:22:04.157Z,30.37
2023-03-16T14:24:34.856Z,30.34
2023-03-16T14:27:16.914Z,30.24
2023-03-16T14:29:45.295Z,30.15
2023-03-16T14:32:29.090Z,30.01
2023-03-16T14:35:18.274Z,30.01
2023-03-16T14:37:45.429Z,30.08
2023-03-16T14:40:25.255Z,30.12
2023-03-16T14:42:55.842Z,30.09
2023-03-16T14:45:32.350Z,29.96
2023-03-16T14:48:18.653Z,29.78
2023-03-16T14:50:45.880Z,29.51
2023-03-16T14:53:13.011Z,29.24
2023-03-16T14:55:40.447Z,29.11
2023-03-16T14:58:07.441Z,29.00
2023-03-16T15:00:42.807Z,28.96
2023-03-16T15:03:17.654Z,28.91
2023-03-16T15:05:50.221Z,28.80
2023-03-16T15:08:31.927Z,28.63
2023-03-16T15:11:05.695Z,28.45
2023-03-16T15:13:53.257Z,28.15
2023-03-16T15:16:23.018Z,27.67
2023-03-16T15:18:51.763Z,27.23
2023-03-16T15:21:25.323Z,26.78
2023-03-16T15:23:52.556Z,26.37
2023-03-16T15:26:25.186Z,25.97
2023-03-16T15:28:52.559Z,25.64
2023-03-16T15:31:19.536Z,25.28
2023-03-16T15:33:46.844Z,24.99
2023-03-16T15:36:20.396Z,24.69
2023-03-16T15:38:51.382Z,24.47
2023-03-16T15:41:18.705Z,24.27
2023-03-16T15:43:46.175Z,24.20
2023-03-16T15:46:13.537Z,24.14
2023-03-16T15:48:40.679Z,24.00
2023-03-16T15:51:19.987Z,23.86
2023-03-16T15:54:03.245Z,23.72
2023-03-16T15:56:41.218Z,23.43
2023-03-16T15:59:17.198Z,22.82
2023-03-16T16:01:47.788Z,22.16
2023-03-16T16:04:19.694Z,21.38
2023-03-16T16:06:48.193Z,20.64
2023-03-16T16:09:15.769Z,19.88
2023-03-16T16:11:42.954Z,19.11
2023-03-16T16:14:17.245Z,18.36
2023-03-16T16:16:48.448Z,17.70
2023-03-16T16:19:16.466Z,17.06
2023-03-16T16:21:43.972Z,16.53
2023-03-16T16:24:11.475Z,16.03
2023-03-16T16:26:52.027Z,15.59
2023-03-16T16:29:25.219Z,15.09
2023-03-16T16:31:52.562Z,14.70
2023-03-16T16:34:24.674Z,14.32
2023-03-16T16:36:56.158Z,14.02
2023-03-16T16:39:23.676Z,13.71
2023-03-16T16:41:54.552Z,13.42
2023-03-16T16:44:27.261Z,13.13
2023-03-16T16:46:55.390Z,12.84
2023-03-16T16:49:30.413Z,12.53
2023-03-16T16:51:58.436Z,12.28
2023-03-16T16:54:31.067Z,11.95
2023-03-16T16:57:00.682Z,11.68
2023-03-16T16:59:33.964Z,11.42
2023-03-16T17:02:03.157Z,11.19
2023-03-16T17:04:30.659Z,10.96
2023-03-16T17:07:01.927Z,10.70
2023-03-16T17:09:30.665Z,10.53
2023-03-16T17:12:02.067Z,10.32
2023-03-16T17:14:31.046Z,10.15
2023-03-16T17:17:05.044Z,9.98
2023-03-16T17:19:32.788Z,9.79
2023-03-16T17:21:59.937Z,9.62
2023-03-16T17:24:27.445Z,9.49
2023-03-16T17:26:58.844Z,9.31
2023-03-16T17:29:32.862Z,9.21
2023-03-16T17:32:16.904Z,9.05
2023-03-16T17:34:44.117Z,8.95
2023-03-16T17:37:17.151Z,8.79
2023-03-16T17:39:44.228Z,8.68
2023-03-16T17:42:16.107Z,8.52
2023-03-16T17:44:46.305Z,8.38
2023-03-16T17:47:24.042Z,8.25
2023-03-16T17:49:52.131Z,8.15
2023-03-16T17:52:25.766Z,8.04
2023-03-16T17:54:54.212Z,7.91
2023-03-16T17:57:25.496Z,7.83
2023-03-16T17:59:52.588Z,7.71
2023-03-16T18:02:44.774Z,7.63
2023-03-16T18:05:38.257Z,7.51
2023-03-16T18:08:25.955Z,7.40
2023-03-16T18:11:01.282Z,7.30
2023-03-16T18:13:33.298Z,7.22
2023-03-16T18:16:02.944Z,7.18
2023-03-16T18:18:34.983Z,7.09
2023-03-16T18:21:02.716Z,6.99
2023-03-16T18:23:33.776Z,6.92
2023-03-16T18:26:03.838Z,6.83
2023-03-16T18:28:31.594Z,6.77
2023-03-16T18:31:00.375Z,6.64
2023-03-16T18:33:37.889Z,6.59
2023-03-16T18:36:13.435Z,6.49
2023-03-16T18:38:48.436Z,6.39
2023-03-16T18:41:25.455Z,6.35
2023-03-16T18:43:55.895Z,6.24
2023-03-16T18:46:25.695Z,6.20
2023-03-16T18:48:55.869Z,6.13
2023-03-16T18:51:23.700Z,6.04
2023-03-16T18:53:50.717Z,5.99
2023-03-16T18:56:21.813Z,5.92
2023-03-16T18:58:51.419Z,5.86
2023-03-16T19:01:31.228Z,5.80
2023-03-16T19:04:01.114Z,5.70
2023-03-16T19:06:33.363Z,5.66
2023-03-16T19:09:10.528Z,5.60
2023-03-16T19:11:43.349Z,5.55
2023-03-16T19:14:24.411Z,5.51
2023-03-16T19:16:53.300Z,5.47
2023-03-16T19:19:22.607Z,5.43
2023-03-16T19:21:53.786Z,5.41
2023-03-16T19:24:33.649Z,5.37
2023-03-16T19:27:02.675Z,5.35
2023-03-16T19:29:33.552Z,5.29
2023-03-16T19:32:01.427Z,5.28
2023-03-16T19:34:28.635Z,5.25
2023-03-16T19:36:55.799Z,5.23
2023-03-16T19:39:23.737Z,5.22
2023-03-16T19:41:57.543Z,5.24
2023-03-16T19:44:28.471Z,5.21
2023-03-16T19:46:56.175Z,5.22
2023-03-16T19:49:26.955Z,5.21
2023-03-16T19:51:55.887Z,5.19
2023-03-16T19:54:26.402Z,5.18
2023-03-16T19:56:55.973Z,5.16
2023-03-16T19:59:26.783Z,5.12
2023-03-16T20:01:53.778Z,5.12
2023-03-16T20:04:24.215Z,5.09
2023-03-16T20:06:51.896Z,5.10
2023-03-16T20:09:19.200Z,5.08
2023-03-16T20:11:48.168Z,5.08
2023-03-16T20:14:21.446Z,5.05
2023-03-16T20:16:48.681Z,5.03
2023-03-16T20:19:16.084Z,5.01
2023-03-16T20:21:43.336Z,5.01
2023-03-16T20:24:20.888Z,4.99
2023-03-16T20:26:51.534Z,4.94
2023-03-16T20:29:31.970Z,4.92
2023-03-16T20:32:01.148Z,4.89
2023-03-16T20:34:31.226Z,4.86
2023-03-16T20:36:58.708Z,4.84
2023-03-16T20:39:26.353Z,4.83
2023-03-16T20:41:53.416Z,4.83
2023-03-16T20:44:25.175Z,4.80
2023-03-16T20:46:52.276Z,4.82
2023-03-16T20:49:22.041Z,4.84
2023-03-16T20:51:50.040Z,4.79
2023-03-16T20:54:17.678Z,4.81
2023-03-16T20:56:44.826Z,4.80
2023-03-16T20:59:20.321Z,4.84
2023-03-16T21:01:48.277Z,4.84
2023-03-16T21:04:23.231Z,4.85
2023-03-16T21:06:51.020Z,4.88
2023-03-16T21:09:20.102Z,4.93
2023-03-16T21:11:47.926Z,4.94
2023-03-16T21:14:18.534Z,4.91
2023-03-16T21:16:45.796Z,4.95
2023-03-16T21:19:21.745Z,4.96
2023-03-16T21:21:50.712Z,4.95
2023-03-16T21:24:17.639Z,4.96
2023-03-16T21:26:47.403Z,4.99
2023-03-16T21:29:24.165Z,5.01
2023-03-16T21:31:51.750Z,5.03
2023-03-16T21:34:33.875Z,5.04
2023-03-16T21:37:01.000Z,5.06
2023-03-16T21:39:28.388Z,5.08
2023-03-16T21:41:55.461Z,5.06
2023-03-16T21:44:22.739Z,5.09
2023-03-16T21:46:49.921Z,5.14
2023-03-16T21:49:17.075Z,5.16
2023-03-16T21:51:44.160Z,5.16
2023-03-16T21:54:15.712Z,5.13
2023-03-16T21:56:43.314Z,5.15
2023-03-16T21:59:11.239Z,5.12
2023-03-16T22:01:54.343Z,5.10
2023-03-16T22:04:26.732Z,5.11
2023-03-16T22:06:53.776Z,5.09
2023-03-16T22:09:29.827Z,5.09
2023-03-16T22:11:56.826Z,5.08
2023-03-16T22:14:23.868Z,5.05
2023-03-16T22:16:51.693Z,5.04
2023-03-16T22:19:18.839Z,5.03
2023-03-16T22:21:47.476Z,5.01
2023-03-16T22:24:23.566Z,5.00
2023-03-16T22:26:51.206Z,5.00
2023-03-16T22:29:30.634Z,4.95
2023-03-16T22:32:12.436Z,4.94
2023-03-16T22:34:48.060Z,4.89
2023-03-16T22:37:23.177Z,4.88
2023-03-16T22:39:51.191Z,4.84
2023-03-16T22:42:37.999Z,4.80
2023-03-16T22:45:23.037Z,4.74
2023-03-16T22:47:50.477Z,4.72
2023-03-16T22:50:19.724Z,4.68
2023-03-16T22:52:50.418Z,4.64
2023-03-16T22:55:26.513Z,4.59
2023-03-16T22:58:18.701Z,4.57
2023-03-16T23:00:45.792Z,4.53
2023-03-16T23:03:23.095Z,4.48
2023-03-16T23:05:50.466Z,4.49
2023-03-16T23:08:23.420Z,4.44
2023-03-16T23:10:53.619Z,4.38
2023-03-16T23:13:24.524Z,4.37
2023-03-16T23:15:53.467Z,4.31
2023-03-16T23:18:26.045Z,4.28
2023-03-16T23:20:53.204Z,4.25
2023-03-16T23:23:20.334Z,4.25
2023-03-16T23:25:48.410Z,4.23
2023-03-16T23:28:23.328Z,4.16
2023-03-16T23:30:50.574Z,4.15
2023-03-16T23:33:17.694Z,4.13
2023-03-16T23:35:46.405Z,4.10
2023-03-16T23:38:13.653Z,4.08
2023-03-16T23:40:40.844Z,4.07
2023-03-16T23:43:08.745Z,4.08
2023-03-16T23:45:42.076Z,4.04
2023-03-16T23:48:18.036Z,3.99
2023-03-16T23:50:48.258Z,3.98
2023-03-16T23:53:18.642Z,3.94
2023-03-16T23:55:46.649Z,3.91
2023-03-16T23:58:14.333Z,3.92
